Time;durP1;ratioP1;P1;durP2;ratioP2;P2;SDS_P1;SDS_P2;PMS_P1;PMS_P2;Temp;Humidity;BMP_temperature;BMP_pressure;BME280_temperature;BME280_humidity;BME280_pressure;Samples;Min_cycle;Max_cycle;Signal;HPM_P1;HPM_P2
2023/10/16 00:00:42;;;;;;;5.47;2.95;;;5.60;99.90;;;;;;5019537;28;20025;-71
2023/10/16 00:03:08;;;;;;;6.10;3.15;;;5.60;99.90;;;;;;5019606;28;20025;-70
2023/10/16 00:05:39;;;;;;;4.50;2.67;;;5.70;99.90;;;;;;5019427;28;20022;-70
2023/10/16 00:08:05;;;;;;;5.70;3.25;;;5.60;99.90;;;;;;5019231;28;20156;-70
2023/10/16 00:10:35;;;;;;;5.47;2.67;;;5.30;99.90;;;;;;5019081;28;20030;-70
2023/10/16 00:13:05;;;;;;;9.15;2.67;;;5.20;99.90;;;;;;5019476;28;20014;-70
2023/10/16 00:15:44;;;;;;;4.90;2.65;;;5.30;99.90;;;;;;5019130;28;20026;-70
2023/10/16 00:18:16;;;;;;;6.63;2.30;;;5.50;99.90;;;;;;5019045;28;20026;-70
2023/10/16 00:20:42;;;;;;;4.05;2.80;;;5.50;99.90;;;;;;5019086;28;20156;-70
2023/10/16 00:23:12;;;;;;;5.00;2.83;;;5.40;99.90;;;;;;5018764;28;20054;-70
2023/10/16 00:25:41;;;;;;;7.60;2.60;;;5.40;99.90;;;;;;5018346;28;20022;-70
2023/10/16 00:28:09;;;;;;;6.13;3.13;;;5.40;99.90;;;;;;5019478;28;20022;-70
2023/10/16 00:30:37;;;;;;;6.00;2.40;;;5.40;99.90;;;;;;5018886;28;20030;-70
2023/10/16 00:33:10;;;;;;;5.15;3.08;;;5.40;99.90;;;;;;5018818;28;20025;-70
2023/10/16 00:35:39;;;;;;;7.05;2.83;;;5.30;99.90;;;;;;5018976;28;20021;-70
2023/10/16 00:38:12;;;;;;;6.63;2.53;;;5.00;99.90;;;;;;5018706;28;20041;-70
2023/10/16 00:40:44;;;;;;;8.40;2.95;;;4.80;99.90;;;;;;5017912;28;20140;-70
2023/10/16 00:43:14;;;;;;;2.97;2.22;;;4.80;99.90;;;;;;5017956;28;20044;-70
2023/10/16 00:45:46;;;;;;;4.00;2.50;;;4.50;99.90;;;;;;5018165;28;20113;-70
2023/10/16 00:48:19;;;;;;;4.30;2.45;;;4.50;99.90;;;;;;5018458;28;20061;-70
2023/10/16 00:50:49;;;;;;;3.92;2.50;;;4.60;99.90;;;;;;5018466;28;20025;-70
2023/10/16 00:53:26;;;;;;;6.10;2.70;;;4.60;99.90;;;;;;5017252;28;20073;-70
2023/10/16 00:55:52;;;;;;;6.40;2.53;;;4.70;99.90;;;;;;5017539;28;20034;-70
2023/10/16 00:58:18;;;;;;;4.72;2.83;;;4.90;99.90;;;;;;5018392;28;20113;-70
2023/10/16 01:00:46;;;;;;;8.02;2.85;;;5.00;99.90;;;;;;5017818;28;20115;-70
2023/10/16 01:03:13;;;;;;;6.13;2.97;;;5.00;99.90;;;;;;5018277;28;20033;-70
2023/10/16 01:05:42;;;;;;;6.38;2.40;;;5.00;99.90;;;;;;5018299;28;20228;-70
2023/10/16 01:08:12;;;;;;;8.25;2.58;;;5.00;99.90;;;;;;5018120;28;20033;-70
2023/10/16 01:10:40;;;;;;;5.72;2.97;;;4.90;99.90;;;;;;5017471;28;20025;-70
2023/10/16 01:13:12;;;;;;;5.35;2.70;;;4.60;99.90;;;;;;5017139;28;20067;-70
2023/10/16 01:15:43;;;;;;;4.57;2.53;;;4.50;99.90;;;;;;5017172;28;20044;-70
2023/10/16 01:18:11;;;;;;;8.67;2.70;;;4.60;99.90;;;;;;5018193;28;20080;-70
2023/10/16 01:20:38;;;;;;;5.43;2.47;;;4.70;99.90;;;;;;5018105;28;20257;-70
2023/10/16 01:23:04;;;;;;;7.25;2.45;;;4.70;99.90;;;;;;5018036;28;20064;-70
2023/10/16 01:25:30;;;;;;;5.07;2.58;;;4.60;99.90;;;;;;5018132;28;20032;-70
2023/10/16 01:27:56;;;;;;;5.80;2.70;;;4.60;99.90;;;;;;5017706;28;20026;-70
2023/10/16 01:30:21;;;;;;;7.72;2.63;;;4.50;99.90;;;;;;5017092;28;20032;-70
2023/10/16 01:32:47;;;;;;;5.63;2.85;;;4.40;99.90;;;;;;5018149;28;20025;-70
2023/10/16 01:35:13;;;;;;;3.60;2.30;;;4.50;99.90;;;;;;5018131;28;20029;-71
2023/10/16 01:37:40;;;;;;;7.68;2.78;;;4.60;99.90;;;;;;5017810;28;20028;-70
2023/10/16 01:40:25;;;;;;;4.25;2.88;;;4.70;99.90;;;;;;5017649;28;20018;-70
2023/10/16 01:42:55;;;;;;;3.35;2.00;;;4.80;99.90;;;;;;5017536;28;20037;-70
2023/10/16 01:45:21;;;;;;;6.72;2.30;;;4.60;99.90;;;;;;5017642;28;20030;-70
2023/10/16 01:47:50;;;;;;;9.70;3.03;;;4.70;99.90;;;;;;5017457;28;20025;-70
2023/10/16 01:50:21;;;;;;;5.95;2.88;;;4.70;99.90;;;;;;5016732;28;20033;-70
2023/10/16 01:52:47;;;;;;;7.68;2.28;;;4.70;99.90;;;;;;5016658;28;20022;-70
2023/10/16 01:55:16;;;;;;;6.47;2.60;;;4.70;99.90;;;;;;5017524;28;20061;-70
2023/10/16 01:57:44;;;;;;;7.53;2.72;;;4.60;99.90;;;;;;5017409;28;20105;-70
2023/10/16 02:00:17;;;;;;;4.85;2.30;;;4.50;99.90;;;;;;5016467;28;20022;-70
2023/10/16 02:02:45;;;;;;;5.93;2.30;;;4.50;99.90;;;;;;5017543;28;20029;-70
2023/10/16 02:05:15;;;;;;;3.92;2.30;;;4.40;99.90;;;;;;5016876;28;20022;-70
2023/10/16 02:07:45;;;;;;;6.43;2.85;;;4.40;99.90;;;;;;5017335;28;20026;-70
2023/10/16 02:10:13;;;;;;;4.05;2.13;;;4.50;99.90;;;;;;5016669;28;20028;-70
2023/10/16 02:12:39;;;;;;;4.88;3.13;;;4.50;99.90;;;;;;5016422;28;20030;-70
2023/10/16 02:15:08;;;;;;;3.80;2.38;;;4.50;99.90;;;;;;5017318;28;20105;-70
2023/10/16 02:17:37;;;;;;;4.88;2.55;;;4.50;99.90;;;;;;5017102;28;20030;-70
2023/10/16 02:20:11;;;;;;;4.43;2.47;;;4.20;99.90;;;;;;5017164;28;20030;-70
2023/10/16 02:22:36;;;;;;;5.05;2.63;;;4.10;99.90;;;;;;5017573;28;20021;-70
2023/10/16 02:25:08;;;;;;;3.55;2.30;;;4.00;99.90;;;;;;5017176;28;20030;-70
2023/10/16 02:27:37;;;;;;;3.97;2.53;;;4.00;99.90;;;;;;5016966;28;20064;-70
2023/10/16 02:30:49;;;;;;;7.90;2.78;;;3.80;99.90;;;;;;5017124;28;20037;-70
2023/10/16 02:32:59;;;;;;;;;;;3.70;99.90;;;;;;5011849;28;20125;-70
2023/10/16 02:35:27;;;;;;;6.45;2.30;;;3.90;99.90;;;;;;5017139;28;19906;-70
2023/10/16 02:37:57;;;;;;;6.68;2.90;;;3.80;99.90;;;;;;5016867;28;20026;-70
2023/10/16 02:40:26;;;;;;;3.17;2.08;;;4.00;99.90;;;;;;5016168;28;20088;-70
2023/10/16 02:42:56;;;;;;;5.18;2.33;;;4.20;99.90;;;;;;5017301;28;20176;-70
2023/10/16 02:45:25;;;;;;;8.63;2.72;;;4.30;99.90;;;;;;5016821;28;20029;-70
2023/10/16 02:47:52;;;;;;;6.30;2.83;;;4.20;99.90;;;;;;5016864;28;20022;-70
2023/10/16 02:50:19;;;;;;;7.55;2.22;;;4.00;99.90;;;;;;5016873;28;20033;-70
2023/10/16 02:52:45;;;;;;;4.28;2.25;;;4.00;99.90;;;;;;5016955;28;20018;-70
2023/10/16 02:55:11;;;;;;;4.45;2.75;;;4.00;99.90;;;;;;5016844;28;20022;-70
2023/10/16 02:57:40;;;;;;;6.45;2.50;;;4.00;99.90;;;;;;5016803;28;20049;-70
2023/10/16 03:00:25;;;;;;;5.65;2.20;;;4.00;99.90;;;;;;5016944;28;20045;-70
2023/10/16 03:02:51;;;;;;;5.38;2.50;;;4.00;99.90;;;;;;5017102;28;20022;-70
2023/10/16 03:05:28;;;;;;;9.70;2.92;;;4.00;99.90;;;;;;5016135;28;20030;-70
2023/10/16 03:07:54;;;;;;;5.80;2.63;;;3.80;99.90;;;;;;5016687;28;20153;-71
2023/10/16 03:10:23;;;;;;;5.55;2.65;;;3.70;99.90;;;;;;5016801;28;20022;-70
2023/10/16 03:12:52;;;;;;;3.63;2.20;;;3.70;99.90;;;;;;5017016;28;20076;-68
2023/10/16 03:15:27;;;;;;;4.80;2.47;;;3.60;99.90;;;;;;5016661;28;20037;-68
2023/10/16 03:17:54;;;;;;;2.47;2.10;;;3.80;99.90;;;;;;5019038;28;20022;-68
2023/10/16 03:20:22;;;;;;;5.28;2.58;;;4.10;99.90;;;;;;5020653;28;20022;-68
2023/10/16 03:22:50;;;;;;;4.32;2.20;;;4.10;99.90;;;;;;5020552;28;20029;-68
2023/10/16 03:25:27;;;;;;;6.40;2.85;;;4.20;99.90;;;;;;5019574;28;20026;-67
2023/10/16 03:27:56;;;;;;;6.85;3.22;;;4.00;99.90;;;;;;5019845;28;20057;-68
2023/10/16 03:30:27;;;;;;;5.63;3.42;;;4.00;99.90;;;;;;5020259;28;20056;-67
2023/10/16 03:32:53;;;;;;;4.93;2.88;;;4.10;99.90;;;;;;5020072;28;20022;-68
2023/10/16 03:35:26;;;;;;;6.65;2.78;;;4.00;99.90;;;;;;5019920;28;20041;-67
2023/10/16 03:37:53;;;;;;;7.72;3.20;;;3.90;99.90;;;;;;5019525;28;20030;-68
2023/10/16 03:40:19;;;;;;;5.68;2.63;;;3.80;99.90;;;;;;5019828;28;20033;-68
2023/10/16 03:42:46;;;;;;;5.07;2.67;;;3.70;99.90;;;;;;5018819;28;20022;-68
2023/10/16 03:45:13;;;;;;;4.10;2.22;;;3.80;99.90;;;;;;5019879;28;20052;-68
2023/10/16 03:47:39;;;;;;;4.35;2.75;;;3.80;99.90;;;;;;5019571;28;20026;-68
2023/10/16 03:50:06;;;;;;;8.35;3.03;;;3.70;99.90;;;;;;5018877;28;20044;-68
2023/10/16 03:52:33;;;;;;;6.07;2.85;;;3.60;99.90;;;;;;5019603;28;20029;-67
2023/10/16 03:57:43;;;;;;;5.00;2.63;;;3.40;99.90;;;;;;5019833;28;20094;-68
2023/10/16 04:00:14;;;;;;;4.18;2.22;;;3.40;99.90;;;;;;5019476;28;20054;-68
2023/10/16 04:02:41;;;;;;;7.20;3.00;;;3.50;99.90;;;;;;5019738;28;20033;-68
2023/10/16 04:05:27;;;;;;;8.57;3.00;;;3.50;99.90;;;;;;5019684;28;20041;-68
2023/10/16 04:07:53;;;;;;;5.43;2.72;;;3.50;99.90;;;;;;5018738;28;20033;-67
2023/10/16 04:10:28;;;;;;;6.47;3.10;;;3.40;99.90;;;;;;5018390;28;20022;-68
2023/10/16 04:12:57;;;;;;;4.75;2.63;;;3.40;99.90;;;;;;5019469;28;20025;-67
2023/10/16 04:21:10;;;;;;;5.00;2.70;;;3.40;99.90;;;;;;5019352;28;20048;-68
2023/10/16 04:42:49;;;;;;;15.60;4.90;;;3.60;99.90;;;;;;5019107;28;20105;-68
2023/10/16 04:50:30;;;;;;;16.05;4.97;;;3.70;99.90;;;;;;5018938;28;20022;-68
2023/10/16 05:08:59;;;;;;;16.58;5.75;;;3.90;99.90;;;;;;5018725;28;20065;-68
2023/10/16 05:22:02;;;;;;;95.90;13.15;;;3.80;99.90;;;;;;5018161;28;20022;-68
2023/10/16 06:14:12;;;;;;;21.38;6.28;;;4.00;99.90;;;;;;5017552;28;20080;-68
2023/10/16 06:16:38;;;;;;;34.28;7.60;;;3.90;99.90;;;;;;5017214;28;20028;-68
2023/10/16 06:19:19;;;;;;;35.40;7.28;;;4.00;99.90;;;;;;5017305;28;20105;-68
2023/10/16 06:21:46;;;;;;;24.15;6.75;;;4.00;99.90;;;;;;5017255;28;20038;-68
2023/10/16 06:25:10;;;;;;;17.67;6.57;;;4.10;99.90;;;;;;5017675;28;20022;-68
2023/10/16 06:27:24;;;;;;;19.15;6.65;;;4.20;99.90;;;;;;5013999;28;20088;-68
2023/10/16 06:29:50;;;;;;;17.85;5.80;;;4.10;99.90;;;;;;5017369;28;20076;-69
2023/10/16 06:32:20;;;;;;;23.85;6.43;;;4.00;99.90;;;;;;5017112;28;20021;-69
2023/10/16 06:34:51;;;;;;;22.70;6.10;;;4.10;99.90;;;;;;5017225;28;20056;-68
2023/10/16 06:37:17;;;;;;;25.30;7.28;;;4.00;99.90;;;;;;5016871;28;20026;-69
2023/10/16 06:39:47;;;;;;;44.22;8.30;;;4.10;99.90;;;;;;5017226;28;20037;-69
2023/10/16 06:42:18;;;;;;;19.08;6.85;;;4.00;99.90;;;;;;5017027;28;20083;-69
2023/10/16 06:44:50;;;;;;;23.20;6.93;;;4.20;99.90;;;;;;5017028;28;20041;-68
2023/10/16 06:47:16;;;;;;;33.65;8.57;;;4.40;99.90;;;;;;5016708;28;20026;-69
2023/10/16 06:49:41;;;;;;;46.40;7.53;;;4.40;99.90;;;;;;5016019;28;20018;-68
2023/10/16 06:52:12;;;;;;;23.88;5.85;;;4.30;99.90;;;;;;5017940;28;20018;-68
2023/10/16 06:54:39;;;;;;;26.90;5.85;;;4.20;99.90;;;;;;5021098;28;20014;-67
2023/10/16 06:57:10;;;;;;;32.22;6.80;;;4.10;99.90;;;;;;5019819;28;20028;-67
2023/10/16 06:59:37;;;;;;;59.47;10.05;;;4.00;99.90;;;;;;5019855;28;20121;-67
2023/10/16 07:02:03;;;;;;;31.40;7.43;;;3.90;99.90;;;;;;5019551;28;20022;-67
2023/10/16 07:04:29;;;;;;;19.13;7.03;;;3.80;99.90;;;;;;5020702;28;20026;-69
2023/10/16 07:06:57;;;;;;;18.58;6.95;;;3.90;99.90;;;;;;5019928;28;20025;-68
2023/10/16 07:09:35;;;;;;;21.00;7.32;;;4.10;99.90;;;;;;5019549;28;20030;-68
2023/10/16 07:12:03;;;;;;;18.35;6.53;;;4.40;99.90;;;;;;5020403;28;20029;-68
2023/10/16 07:14:29;;;;;;;13.27;5.97;;;4.50;99.90;;;;;;5020390;28;20022;-68
2023/10/16 07:16:54;;;;;;;16.40;6.38;;;4.60;99.90;;;;;;5020748;28;20048;-69
2023/10/16 07:19:20;;;;;;;13.57;5.85;;;4.70;99.90;;;;;;5019588;28;20022;-69
2023/10/16 07:21:48;;;;;;;19.33;6.72;;;4.70;99.90;;;;;;5020523;28;20022;-69
2023/10/16 07:24:15;;;;;;;13.95;5.78;;;4.80;99.90;;;;;;5020288;28;20033;-68
2023/10/16 07:26:47;;;;;;;13.43;5.63;;;4.80;99.90;;;;;;5019968;28;20030;-68
2023/10/16 07:29:13;;;;;;;19.10;6.82;;;4.80;99.90;;;;;;5020464;28;20029;-68
2023/10/16 07:31:38;;;;;;;17.05;6.90;;;4.80;99.90;;;;;;5020187;28;20018;-68
2023/10/16 07:34:04;;;;;;;21.50;8.35;;;4.70;99.90;;;;;;5020097;28;20173;-68
2023/10/16 07:36:30;;;;;;;16.15;6.00;;;4.50;99.90;;;;;;5019454;28;20041;-68
2023/10/16 07:38:57;;;;;;;15.98;6.90;;;4.60;99.90;;;;;;5019767;28;20030;-68
2023/10/16 07:41:26;;;;;;;24.63;7.60;;;4.70;99.90;;;;;;5019926;28;20033;-68
2023/10/16 07:43:57;;;;;;;18.13;7.45;;;4.80;99.90;;;;;;5019830;28;20025;-70
2023/10/16 07:46:30;;;;;;;20.60;7.32;;;4.90;99.90;;;;;;5019643;28;20026;-70
2023/10/16 07:48:56;;;;;;;20.70;8.32;;;4.90;99.90;;;;;;5019740;28;20037;-70
2023/10/16 08:23:59;;;;;;;21.90;8.93;;;5.50;99.90;;;;;;6279117;22;886229;-63
2023/10/16 08:26:28;;;;;;;18.92;8.50;;;5.40;99.90;;;;;;6216054;22;1213788;-63
2023/10/16 08:29:19;;;;;;;22.77;7.72;;;5.60;99.90;;;;;;6258934;23;20029;-63
2023/10/16 08:32:37;;;;;;;19.55;8.02;;;5.80;99.90;;;;;;6259236;23;20006;-63
2023/10/16 08:34:40;;;;;;;24.98;9.48;;;5.80;99.90;;;;;;6228607;23;20054;-63
2023/10/16 08:37:08;;;;;;;17.98;7.78;;;6.00;99.90;;;;;;6229228;22;20017;-73
2023/10/16 08:39:36;;;;;;;19.55;8.90;;;5.90;99.90;;;;;;6228348;23;20000;-74
2023/10/16 08:42:20;;;;;;;23.65;8.93;;;5.90;99.90;;;;;;6228699;23;20000;-74
2023/10/16 08:44:51;;;;;;;26.27;9.73;;;6.10;99.90;;;;;;6202677;23;20001;-73
2023/10/16 08:47:24;;;;;;;20.83;9.35;;;6.00;99.90;;;;;;6203174;23;20000;-74
2023/10/16 08:49:53;;;;;;;21.95;10.20;;;5.80;99.90;;;;;;6202438;23;20005;-74
2023/10/16 08:52:22;;;;;;;23.92;9.20;;;6.30;99.90;;;;;;6228585;23;20009;-73
2023/10/16 08:57:25;;;;;;;21.77;9.30;;;6.50;99.90;;;;;;6229036;23;20014;-73
2023/10/16 08:59:51;;;;;;;22.83;9.93;;;6.60;99.90;;;;;;6228497;23;20004;-74
2023/10/16 09:02:19;;;;;;;28.25;9.60;;;6.60;99.90;;;;;;6228650;23;19997;-74
2023/10/16 09:04:49;;;;;;;26.73;9.85;;;6.50;99.90;;;;;;6228779;23;20009;-74
2023/10/16 09:07:18;;;;;;;23.45;9.18;;;6.50;99.90;;;;;;6202207;23;20004;-74
2023/10/16 09:09:48;;;;;;;18.73;8.48;;;6.70;99.90;;;;;;6202387;23;20094;-74
2023/10/16 09:12:24;;;;;;;19.27;8.20;;;6.80;99.90;;;;;;6228492;23;20075;-74
2023/10/16 09:14:50;;;;;;;22.67;9.05;;;6.80;99.90;;;;;;6201960;23;20005;-74
2023/10/16 09:17:19;;;;;;;22.25;9.50;;;6.60;99.90;;;;;;6202672;23;20005;-74
2023/10/16 09:19:48;;;;;;;17.55;8.02;;;6.80;99.90;;;;;;6221352;23;20079;-73
2023/10/16 09:22:15;;;;;;;25.35;8.88;;;6.90;99.90;;;;;;6195317;23;20001;-74
2023/10/16 09:24:44;;;;;;;20.23;8.27;;;7.00;99.90;;;;;;6195350;23;20054;-74
2023/10/16 09:27:16;;;;;;;18.25;8.13;;;7.20;99.90;;;;;;6221486;23;20011;-74
2023/10/16 09:29:55;;;;;;;24.38;9.38;;;7.40;99.90;;;;;;6196202;23;20009;-72
2023/10/16 09:32:39;;;;;;;19.55;8.65;;;7.20;99.90;;;;;;6195341;23;20124;-73
2023/10/16 09:35:06;;;;;;;21.55;8.20;;;7.30;99.90;;;;;;6221892;23;20007;-74
2023/10/16 09:37:35;;;;;;;20.58;8.43;;;7.30;99.90;;;;;;6222530;23;20159;-71
2023/10/16 09:40:37;;;;;;;17.83;8.48;;;7.40;99.90;;;;;;6195529;23;20005;-71
2023/10/16 09:43:06;;;;;;;18.05;7.97;;;7.70;99.90;;;;;;6221384;23;19997;-72
2023/10/16 09:45:36;;;;;;;18.42;7.47;;;7.60;99.90;;;;;;6221190;23;20083;-74
2023/10/16 09:48:08;;;;;;;17.38;8.43;;;7.50;99.90;;;;;;6194972;23;20005;-73
2023/10/16 09:50:37;;;;;;;;;;;7.70;99.90;;;;;;6221735;23;20000;-73
2023/10/16 09:53:06;;;;;;;22.75;7.85;;;7.60;99.90;;;;;;6194886;23;19979;-73
2023/10/16 09:55:38;;;;;;;22.58;7.97;;;7.90;99.90;;;;;;6221041;23;20037;-74
2023/10/16 09:58:05;;;;;;;15.68;6.55;;;8.10;99.90;;;;;;6195791;23;20037;-72
2023/10/16 10:00:31;;;;;;;21.27;7.13;;;8.50;99.90;;;;;;6194955;23;20005;-71
2023/10/16 10:03:13;;;;;;;14.65;7.38;;;8.50;99.90;;;;;;6221132;23;20003;-72
2023/10/16 10:08:52;;;;;;;15.45;7.68;;;8.20;99.90;;;;;;6231481;23;20005;-71
2023/10/16 10:11:37;;;;;;;13.50;7.80;;;8.30;99.90;;;;;;6221060;23;19996;-71
2023/10/16 10:16:51;;;;;;;15.45;7.45;;;8.50;99.90;;;;;;6224621;23;20035;-71
2023/10/16 10:19:35;;;;;;;14.07;6.85;;;8.70;99.90;;;;;;6220915;23;20023;-71
2023/10/16 10:22:12;;;;;;;15.98;7.13;;;8.80;99.90;;;;;;6196085;23;20009;-72
2023/10/16 10:24:38;;;;;;;14.68;7.63;;;8.80;99.90;;;;;;6220891;23;20047;-72
2023/10/16 10:27:05;;;;;;;16.13;7.30;;;9.00;99.90;;;;;;6194698;23;20079;-72
2023/10/16 10:29:31;;;;;;;20.75;8.70;;;9.10;99.90;;;;;;6220561;23;20005;-71
2023/10/16 10:32:06;;;;;;;9.77;6.25;;;9.10;99.90;;;;;;6220657;23;20005;-72
2023/10/16 10:34:31;;;;;;;12.13;7.20;;;9.20;99.90;;;;;;6221364;23;20027;-71
2023/10/16 10:36:58;;;;;;;12.43;6.45;;;9.30;99.90;;;;;;6194404;23;20009;-72
2023/10/16 10:39:29;;;;;;;17.95;7.25;;;9.40;99.90;;;;;;6194491;23;20001;-72
2023/10/16 10:42:03;;;;;;;17.02;7.38;;;9.50;99.90;;;;;;6220953;23;19992;-71
2023/10/16 10:44:35;;;;;;;18.60;7.53;;;9.40;99.90;;;;;;6220770;23;20003;-72
2023/10/16 10:47:14;;;;;;;15.38;8.82;;;9.40;99.90;;;;;;6220528;23;20005;-74
2023/10/16 10:49:42;;;;;;;16.77;7.80;;;9.30;99.90;;;;;;6194459;23;20050;-74
2023/10/16 10:52:07;;;;;;;17.95;8.00;;;9.30;99.90;;;;;;6194525;23;20005;-74
2023/10/16 10:54:42;;;;;;;14.93;8.25;;;9.40;99.90;;;;;;6220704;23;20008;-73
2023/10/16 10:57:29;;;;;;;14.32;7.13;;;9.40;99.90;;;;;;6221054;23;20012;-73
2023/10/16 10:59:56;;;;;;;25.45;9.15;;;9.80;99.90;;;;;;6220485;23;20067;-73
2023/10/16 11:02:48;;;;;;;15.45;6.93;;;10.20;99.90;;;;;;6194622;23;20007;-74
2023/10/16 11:05:22;;;;;;;18.90;6.82;;;10.60;99.90;;;;;;6220218;23;20055;-74
2023/10/16 11:08:17;;;;;;;15.60;6.72;;;10.30;99.90;;;;;;6220708;23;20024;-74
2023/10/16 11:10:44;;;;;;;14.80;6.68;;;10.40;99.90;;;;;;6220153;23;20004;-73
2023/10/16 11:13:11;;;;;;;10.48;6.20;;;10.60;99.90;;;;;;6220586;23;20004;-73
2023/10/16 11:15:44;;;;;;;9.48;5.72;;;10.80;99.90;;;;;;6194017;23;20004;-72
2023/10/16 11:18:11;;;;;;;13.20;6.25;;;11.00;99.90;;;;;;6221153;23;20005;-62
2023/10/16 11:20:37;;;;;;;30.35;6.13;;;11.00;99.90;;;;;;6220336;23;20001;-62
2023/10/16 11:23:16;;;;;;;8.50;5.38;;;11.20;99.90;;;;;;6194562;23;20088;-62
2023/10/16 11:25:44;;;;;;;11.48;5.75;;;10.80;99.90;;;;;;6194578;23;20016;-70
2023/10/16 11:28:21;;;;;;;13.50;6.53;;;11.10;99.90;;;;;;6194743;23;20031;-70
2023/10/16 11:30:49;;;;;;;16.50;5.20;;;11.40;99.90;;;;;;6220664;23;20005;-70
2023/10/16 11:33:34;;;;;;;11.75;5.22;;;11.40;99.90;;;;;;6220393;23;20067;-70
2023/10/16 11:36:06;;;;;;;15.32;5.15;;;11.10;99.90;;;;;;6220222;23;20012;-70
2023/10/16 11:38:34;;;;;;;8.68;4.35;;;11.30;99.90;;;;;;6195492;23;20001;-70
2023/10/16 11:41:05;;;;;;;7.53;4.30;;;11.80;99.90;;;;;;6220268;23;19997;-70
2023/10/16 11:43:38;;;;;;;8.88;4.32;;;12.20;99.90;;;;;;6220456;23;20008;-70
2023/10/16 11:46:24;;;;;;;11.13;4.30;;;12.50;99.90;;;;;;6220131;23;20043;-70
2023/10/16 11:48:56;;;;;;;10.35;3.63;;;12.80;99.90;;;;;;6194878;23;20024;-69
2023/10/16 11:51:25;;;;;;;8.35;3.67;;;12.50;99.90;;;;;;6220699;23;20016;-69
2023/10/16 11:54:02;;;;;;;10.52;4.50;;;12.30;99.90;;;;;;6220200;23;20008;-69
2023/10/16 11:56:34;;;;;;;10.45;4.68;;;11.90;99.90;;;;;;6220213;23;20031;-70
2023/10/16 11:59:00;;;;;;;;;;;11.70;99.90;;;;;;6194569;23;20019;-70
2023/10/16 12:01:27;;;;;;;6.07;3.47;;;11.60;99.90;;;;;;6220422;23;19900;-69
2023/10/16 12:03:53;;;;;;;7.10;3.83;;;12.20;99.90;;;;;;6220620;23;20068;-70
2023/10/16 12:06:18;;;;;;;8.85;4.07;;;12.70;99.90;;;;;;6194660;23;20027;-69
2023/10/16 12:08:44;;;;;;;9.55;4.10;;;13.00;99.90;;;;;;6194903;23;20079;-70
2023/10/16 12:11:14;;;;;;;6.22;3.63;;;12.80;99.90;;;;;;6193739;23;20064;-70
2023/10/16 12:13:41;;;;;;;10.38;3.78;;;12.70;99.90;;;;;;6220196;23;20057;-70
2023/10/16 12:16:06;;;;;;;12.43;3.38;;;12.80;99.90;;;;;;6194694;23;20124;-70
2023/10/16 12:18:32;;;;;;;13.88;3.78;;;13.10;99.90;;;;;;6220155;23;19996;-70
2023/10/16 12:21:04;;;;;;;5.20;2.78;;;13.10;99.90;;;;;;6220210;23;20020;-70
2023/10/16 12:23:39;;;;;;;6.38;3.03;;;13.00;99.90;;;;;;6220673;23;20004;-70
2023/10/16 12:26:05;;;;;;;7.88;2.65;;;12.80;99.90;;;;;;6220447;23;20044;-71
2023/10/16 12:28:34;;;;;;;6.63;2.80;;;12.90;99.90;;;;;;6193793;23;20027;-71
2023/10/16 12:31:02;;;;;;;8.32;3.10;;;12.80;99.90;;;;;;6220220;23;20073;-70
2023/10/16 12:33:30;;;;;;;4.28;2.28;;;12.90;99.90;;;;;;6193952;23;20055;-71
2023/10/16 12:35:56;;;;;;;4.85;2.33;;;13.50;99.90;;;;;;6219821;23;20005;-70
2023/10/16 12:38:23;;;;;;;7.45;2.97;;;13.50;99.90;;;;;;6220499;23;20075;-70
2023/10/16 12:40:53;;;;;;;8.05;3.10;;;13.80;99.90;;;;;;6194220;23;20058;-71
2023/10/16 12:43:20;;;;;;;6.63;2.45;;;14.10;99.90;;;;;;6220185;23;20076;-70
2023/10/16 12:45:46;;;;;;;7.28;2.40;;;14.00;99.90;;;;;;6219963;23;19996;-70
2023/10/16 12:48:11;;;;;;;3.17;2.03;;;14.10;99.90;;;;;;6193979;23;20011;-70
2023/10/16 12:50:37;;;;;;;11.40;2.15;;;14.50;99.90;;;;;;6193948;23;20028;-71
2023/10/16 12:53:03;;;;;;;7.15;2.35;;;14.90;99.90;;;;;;6220239;23;20005;-70
2023/10/16 12:55:29;;;;;;;5.40;1.83;;;14.60;99.90;;;;;;6222210;23;20071;-70
2023/10/16 12:57:54;;;;;;;2.85;1.42;;;14.40;99.90;;;;;;6222167;23;20000;-71
2023/10/16 13:00:22;;;;;;;6.45;2.00;;;14.40;99.90;;;;;;6196209;23;20004;-71
2023/10/16 13:02:49;;;;;;;6.47;1.80;;;14.00;99.90;;;;;;6195868;23;20022;-70
2023/10/16 13:05:25;;;;;;;6.95;1.80;;;13.70;99.90;;;;;;6195823;23;19997;-70
2023/10/16 13:07:51;;;;;;;7.47;1.50;;;13.80;99.90;;;;;;6195825;23;20008;-71
2023/10/16 13:10:20;;;;;;;5.28;1.20;;;13.70;99.90;;;;;;6222127;23;20000;-70
2023/10/16 13:12:47;;;;;;;3.38;1.38;;;13.90;99.90;;;;;;6221836;23;20005;-70
2023/10/16 13:15:15;;;;;;;8.18;1.20;;;14.30;99.90;;;;;;6196010;23;20004;-70
2023/10/16 13:17:44;;;;;;;5.97;1.23;;;14.60;99.90;;;;;;6222210;23;20005;-71
2023/10/16 13:20:19;;;;;;;3.42;1.15;;;14.60;99.90;;;;;;6195468;23;20023;-70
2023/10/16 13:22:49;;;;;;;4.60;1.20;;;14.20;99.90;;;;;;6196327;23;20005;-70
2023/10/16 13:25:17;;;;;;;2.20;1.00;;;14.30;99.90;;;;;;6221946;23;19993;-70
2023/10/16 13:27:46;;;;;;;2.55;0.95;;;14.30;99.90;;;;;;6195352;23;20005;-70
2023/10/16 13:30:11;;;;;;;3.33;0.70;;;14.20;99.90;;;;;;6195853;23;20008;-70
2023/10/16 13:32:41;;;;;;;1.38;0.82;;;14.40;99.90;;;;;;6196400;23;20012;-70
2023/10/16 13:35:12;;;;;;;2.20;0.90;;;14.70;99.90;;;;;;6195287;23;20001;-70
2023/10/16 13:37:45;;;;;;;2.63;0.85;;;14.60;99.90;;;;;;6221582;23;20008;-70
2023/10/16 13:40:21;;;;;;;2.50;1.50;;;14.20;99.90;;;;;;6221401;23;20050;-70
2023/10/16 13:42:51;;;;;;;3.28;0.90;;;14.10;99.90;;;;;;6196651;23;20032;-70
2023/10/16 13:45:18;;;;;;;4.60;1.38;;;13.90;99.90;;;;;;6222542;23;20003;-62
2023/10/16 13:47:44;;;;;;;5.85;1.55;;;13.90;99.90;;;;;;6195065;23;20009;-62
2023/10/16 13:50:15;;;;;;;2.15;0.98;;;13.80;99.90;;;;;;6195506;23;20007;-62
2023/10/16 13:52:46;;;;;;;1.45;0.80;;;13.80;99.90;;;;;;6221444;23;20059;-62
2023/10/16 13:55:14;;;;;;;5.85;0.85;;;13.70;99.90;;;;;;6196159;23;20036;-62
2023/10/16 13:57:47;;;;;;;3.83;1.75;;;13.70;99.90;;;;;;6195807;23;20000;-62
2023/10/16 14:00:29;;;;;;;2.45;0.98;;;13.60;99.90;;;;;;6195508;23;20027;-62
2023/10/16 14:02:57;;;;;;;5.47;1.10;;;13.70;99.90;;;;;;6195115;23;20001;-62
2023/10/16 14:05:23;;;;;;;2.70;0.90;;;13.70;99.90;;;;;;6221423;23;20020;-62
2023/10/16 14:07:48;;;;;;;1.00;0.70;;;13.70;99.90;;;;;;6221249;23;20000;-62
2023/10/16 14:10:14;;;;;;;1.15;0.75;;;13.80;99.90;;;;;;6221034;23;20005;-62
2023/10/16 14:12:41;;;;;;;2.58;1.35;;;13.60;99.90;;;;;;6221234;23;20071;-62
2023/10/16 14:15:15;;;;;;;3.10;0.73;;;13.70;99.90;;;;;;6194965;23;20011;-62
2023/10/16 14:17:44;;;;;;;2.70;0.63;;;13.50;99.90;;;;;;6195893;23;20012;-62
2023/10/16 14:20:34;;;;;;;4.15;0.52;;;13.50;99.90;;;;;;6195866;23;20024;-62
2023/10/16 14:22:59;;;;;;;2.58;0.73;;;13.60;99.90;;;;;;6220738;23;20008;-62
2023/10/16 14:25:32;;;;;;;2.13;0.65;;;13.20;99.90;;;;;;6221248;23;20001;-62
2023/10/16 14:28:15;;;;;;;2.25;1.38;;;13.20;99.90;;;;;;6221218;23;20004;-62
2023/10/16 14:30:41;;;;;;;0.77;0.77;;;13.30;99.90;;;;;;6195791;23;20083;-62
2023/10/16 14:33:07;;;;;;;3.90;0.90;;;13.40;99.90;;;;;;6221288;23;20051;-62
2023/10/16 14:35:37;;;;;;;3.28;0.73;;;13.20;99.90;;;;;;6220784;23;20019;-62
2023/10/16 14:38:04;;;;;;;2.95;0.90;;;13.20;99.90;;;;;;6220554;22;20017;-63
2023/10/16 14:40:29;;;;;;;1.38;0.90;;;13.30;99.90;;;;;;6194651;23;20059;-63
2023/10/16 14:42:55;;;;;;;4.55;0.63;;;13.20;99.90;;;;;;6194978;23;19993;-64
2023/10/16 14:45:23;;;;;;;6.38;1.10;;;13.10;99.90;;;;;;6194667;23;19996;-63
2023/10/16 14:47:50;;;;;;;0.75;0.50;;;13.20;99.90;;;;;;6195071;23;20008;-63
2023/10/16 14:50:15;;;;;;;3.33;1.60;;;13.10;99.90;;;;;;6194642;23;20009;-64
2023/10/16 14:52:41;;;;;;;1.20;0.73;;;13.10;99.90;;;;;;6194510;23;20023;-64
2023/10/16 14:55:08;;;;;;;4.75;0.85;;;12.90;99.90;;;;;;6194858;23;20008;-63
2023/10/16 14:57:34;;;;;;;2.45;0.98;;;12.80;99.90;;;;;;6194770;23;20005;-64
2023/10/16 14:59:59;;;;;;;2.25;0.68;;;12.70;99.90;;;;;;6194796;23;20043;-63
2023/10/16 15:02:28;;;;;;;1.95;0.60;;;12.70;99.90;;;;;;6194405;23;20039;-64
2023/10/16 15:04:54;;;;;;;2.17;0.70;;;12.60;99.90;;;;;;6195434;23;20004;-63
2023/10/16 15:07:21;;;;;;;3.33;1.00;;;12.70;99.90;;;;;;6194786;23;20058;-63
2023/10/16 15:09:46;;;;;;;2.65;0.88;;;12.70;99.90;;;;;;6194374;23;20009;-64
2023/10/16 15:12:12;;;;;;;1.48;0.63;;;12.70;99.90;;;;;;6194747;23;20082;-64
2023/10/16 15:14:38;;;;;;;1.77;1.00;;;12.70;99.90;;;;;;6194763;23;20030;-64
2023/10/16 15:17:03;;;;;;;3.17;0.98;;;12.70;99.90;;;;;;6194294;23;20004;-63
2023/10/16 15:19:29;;;;;;;6.18;0.80;;;12.70;99.90;;;;;;6194343;23;20011;-63
2023/10/16 15:21:54;;;;;;;4.90;1.15;;;12.80;99.90;;;;;;6194761;23;20027;-63
2023/10/16 15:24:20;;;;;;;3.92;0.95;;;12.70;99.90;;;;;;6195427;23;20054;-64
2023/10/16 15:26:46;;;;;;;1.30;0.80;;;12.50;99.90;;;;;;6195226;23;20051;-63
2023/10/16 15:29:14;;;;;;;3.35;0.82;;;12.40;99.90;;;;;;6194225;23;20083;-63
2023/10/16 15:31:39;;;;;;;3.53;1.05;;;12.30;99.90;;;;;;6195203;23;20004;-64
2023/10/16 15:34:08;;;;;;;1.45;0.85;;;12.20;99.90;;;;;;6194274;23;20008;-63